Time;durP1;ratioP1;P1;durP2;ratioP2;P2;SDS_P1;SDS_P2;PMS_P1;PMS_P2;Temp;Humidity;BMP_temperature;BMP_pressure;BME280_temperature;BME280_humidity;BME280_pressure;Samples;Min_cycle;Max_cycle;Signal;HPM_P1;HPM_P2
2022/08/09 00:01:31;;;;;;;;;;;24.70;80.10;;;;;;5078431;28;19985;-62
2022/08/09 00:03:56;;;;;;;;;;;24.50;80.20;;;;;;5082549;28;19936;-62
2022/08/09 00:06:22;;;;;;;;;;;24.70;80.20;;;;;;5070497;28;20389;-61
2022/08/09 00:08:51;;;;;;;;;;;24.40;79.80;;;;;;5058793;28;19931;-61
2022/08/09 00:11:17;;;;;;;;;;;24.50;78.70;;;;;;5060021;28;19925;-65
2022/08/09 00:13:43;;;;;;;;;;;24.40;79.80;;;;;;5091090;28;20392;-62
2022/08/09 00:16:08;;;;;;;;;;;24.30;80.10;;;;;;5062008;28;19932;-62
2022/08/09 00:18:34;;;;;;;;;;;24.70;79.90;;;;;;5071918;28;20362;-62
2022/08/09 00:21:01;;;;;;;;;;;24.70;80.00;;;;;;5063274;28;19925;-62
2022/08/09 00:23:27;;;;;;;;;;;24.40;79.90;;;;;;5077400;28;19924;-62
2022/08/09 00:25:52;;;;;;;;;;;24.40;79.90;;;;;;5060618;28;19924;-64
2022/08/09 00:28:18;;;;;;;;;;;24.60;79.90;;;;;;5074384;28;20003;-62
2022/08/09 00:30:44;;;;;;;;;;;24.40;79.90;;;;;;5053027;28;19933;-64
2022/08/09 00:33:09;;;;;;;;;;;24.40;79.70;;;;;;5093056;28;19928;-62
2022/08/09 00:35:35;;;;;;;;;;;24.40;79.90;;;;;;5094968;28;19924;-62
2022/08/09 00:38:00;;;;;;;;;;;24.50;79.80;;;;;;5090439;28;19925;-62
2022/08/09 00:40:26;;;;;;;;;;;24.60;80.00;;;;;;5070601;28;19933;-63
2022/08/09 00:42:52;;;;;;;;;;;24.40;79.90;;;;;;5086169;28;19974;-62
2022/08/09 00:45:17;;;;;;;;;;;24.40;79.90;;;;;;5068049;28;19963;-66
2022/08/09 00:47:43;;;;;;;;;;;24.40;79.90;;;;;;5078049;28;19938;-62
2022/08/09 00:50:09;;;;;;;;;;;24.60;80.00;;;;;;5096535;28;19924;-62
2022/08/09 00:52:34;;;;;;;;;;;24.30;79.40;;;;;;5064383;28;19936;-62
2022/08/09 00:55:00;;;;;;;;;;;24.40;80.00;;;;;;5052320;28;20371;-62
2022/08/09 00:57:27;;;;;;;;;;;24.10;79.30;;;;;;5037714;28;19929;-62
2022/08/09 00:59:53;;;;;;;;;;;24.50;80.20;;;;;;5090676;28;19924;-62
2022/08/09 01:02:19;;;;;;;;;;;24.60;80.00;;;;;;5042449;28;19925;-61
2022/08/09 01:04:52;;;;;;;;;;;24.60;80.20;;;;;;5090775;28;20019;-62
2022/08/09 01:07:18;;;;;;;;;;;24.20;78.60;;;;;;5094252;28;19924;-62
2022/08/09 01:10:00;;;;;;;;;;;24.40;79.40;;;;;;5079150;28;19926;-61
2022/08/09 01:12:25;;;;;;;;;;;24.40;80.00;;;;;;5057986;28;19929;-62
2022/08/09 01:15:07;;;;;;;;;;;24.20;79.70;;;;;;5059800;28;19940;-62
2022/08/09 01:17:33;;;;;;;;;;;24.40;78.70;;;;;;5064722;28;19991;-70
2022/08/09 01:20:00;;;;;;;;;;;24.30;80.10;;;;;;5059614;28;19931;-70
2022/08/09 01:22:35;;;;;;;;;;;24.30;80.10;;;;;;5051154;28;19935;-70
2022/08/09 01:25:18;;;;;;;;;;;24.10;78.60;;;;;;5042440;28;20302;-71
2022/08/09 01:27:45;;;;;;;;;;;24.30;78.70;;;;;;5066832;28;20015;-71
2022/08/09 01:30:10;;;;;;;;;;;24.10;80.00;;;;;;5052220;28;19928;-70
2022/08/09 01:32:37;;;;;;;;;;;24.50;80.10;;;;;;5074496;28;19928;-70
2022/08/09 01:35:11;;;;;;;;;;;24.30;80.10;;;;;;5073924;28;19925;-71
2022/08/09 01:37:37;;;;;;;;;;;24.60;78.80;;;;;;5087263;28;19971;-70
2022/08/09 01:40:03;;;;;;;;;;;24.20;79.80;;;;;;5071568;28;19924;-71
2022/08/09 01:42:28;;;;;;;;;;;24.10;79.50;;;;;;5068613;28;19932;-70
2022/08/09 01:44:54;;;;;;;;;;;24.10;80.40;;;;;;5063693;28;19933;-71
2022/08/09 01:47:20;;;;;;;;;;;24.40;80.00;;;;;;5074675;28;19931;-70
2022/08/09 01:49:46;;;;;;;;;;;24.20;79.80;;;;;;5058344;28;19929;-71
2022/08/09 01:52:12;;;;;;;;;;;24.30;79.80;;;;;;5072786;28;20011;-70
2022/08/09 01:54:43;;;;;;;;;;;24.20;80.00;;;;;;5056019;28;19967;-71
2022/08/09 01:57:17;;;;;;;;;;;24.20;78.80;;;;;;5063199;28;19924;-71
2022/08/09 01:59:44;;;;;;;;;;;24.40;79.50;;;;;;5050702;28;20282;-70
2022/08/09 02:02:10;;;;;;;;;;;24.40;80.30;;;;;;5075384;28;19924;-70
2022/08/09 02:04:36;;;;;;;;;;;24.50;80.20;;;;;;5053746;28;19977;-70
2022/08/09 02:07:08;;;;;;;;;;;24.40;80.00;;;;;;5059400;28;20011;-70
2022/08/09 02:09:37;;;;;;;;;;;24.20;80.50;;;;;;5060886;28;20274;-71
2022/08/09 02:12:03;;;;;;;;;;;24.00;80.00;;;;;;5081695;28;19940;-70
2022/08/09 02:14:29;;;;;;;;;;;23.90;79.50;;;;;;5062042;28;20575;-71
2022/08/09 02:16:54;;;;;;;;;;;24.00;79.30;;;;;;5070568;28;19924;-71
2022/08/09 02:19:20;;;;;;;;;;;24.50;80.00;;;;;;5072502;28;19979;-62
2022/08/09 02:21:46;;;;;;;;;;;24.00;79.60;;;;;;5093732;28;20010;-63
2022/08/09 02:24:13;;;;;;;;;;;24.20;80.10;;;;;;5050435;28;19970;-62
2022/08/09 02:26:39;;;;;;;;;;;24.30;80.10;;;;;;5057202;28;20020;-63
2022/08/09 02:29:06;;;;;;;;;;;24.00;79.80;;;;;;5070320;28;19987;-62
2022/08/09 02:31:32;;;;;;;;;;;24.40;80.10;;;;;;5070189;28;19948;-62
2022/08/09 02:33:59;;;;;;;;;;;24.50;80.10;;;;;;5064703;28;20314;-62
2022/08/09 02:36:28;;;;;;;;;;;24.00;80.50;;;;;;5050542;28;19924;-62
2022/08/09 02:38:54;;;;;;;;;;;24.30;78.60;;;;;;5069710;28;20015;-62
2022/08/09 02:41:23;;;;;;;;;;;24.00;79.60;;;;;;5039179;28;19976;-62
2022/08/09 02:43:49;;;;;;;;;;;24.00;79.80;;;;;;5084080;28;19924;-62
2022/08/09 02:46:15;;;;;;;;;;;24.20;79.70;;;;;;5050522;28;19927;-62
2022/08/09 02:48:40;;;;;;;;;;;24.10;79.60;;;;;;5077941;28;19976;-62
2022/08/09 02:51:07;;;;;;;;;;;24.20;79.70;;;;;;5089984;28;19971;-62
2022/08/09 02:53:33;;;;;;;;;;;24.10;79.90;;;;;;5092416;28;20387;-61
2022/08/09 02:55:59;;;;;;;;;;;24.00;79.70;;;;;;5056235;28;20028;-62
2022/08/09 02:58:25;;;;;;;;;;;24.00;79.40;;;;;;5051470;28;19924;-62
2022/08/09 03:00:51;;;;;;;;;;;24.00;79.50;;;;;;5072879;28;19971;-62
2022/08/09 03:03:17;;;;;;;;;;;24.30;79.70;;;;;;5071548;28;20408;-62
2022/08/09 03:05:43;;;;;;;;;;;24.00;79.60;;;;;;5054591;28;20405;-63
2022/08/09 03:08:09;;;;;;;;;;;24.00;79.20;;;;;;5068875;28;19924;-70
2022/08/09 03:10:35;;;;;;;;;;;24.30;79.60;;;;;;5065690;28;19920;-61
2022/08/09 03:13:01;;;;;;;;;;;24.20;79.40;;;;;;5073734;28;19931;-62
2022/08/09 03:15:26;;;;;;;;;;;23.80;79.20;;;;;;5062670;28;19925;-70
2022/08/09 03:17:52;;;;;;;;;;;23.90;79.10;;;;;;5057330;28;20557;-70
2022/08/09 03:20:18;;;;;;;;;;;24.10;79.50;;;;;;5058524;28;20386;-62
2022/08/09 03:22:46;;;;;;;;;;;24.00;79.30;;;;;;5093477;28;19982;-62
2022/08/09 03:25:12;;;;;;;;;;;24.10;79.50;;;;;;5070509;28;20007;-63
2022/08/09 03:27:37;;;;;;;;;;;24.10;79.40;;;;;;5050571;28;20012;-62
2022/08/09 03:30:03;;;;;;;;;;;23.90;79.20;;;;;;5051564;28;19932;-62
2022/08/09 03:32:29;;;;;;;;;;;23.80;78.80;;;;;;5038310;28;19924;-62
2022/08/09 03:34:55;;;;;;;;;;;23.90;79.10;;;;;;5087492;28;20014;-63
2022/08/09 03:37:21;;;;;;;;;;;24.00;79.10;;;;;;5086273;28;20015;-65
2022/08/09 03:39:47;;;;;;;;;;;24.10;79.30;;;;;;5065466;28;19947;-61
2022/08/09 03:42:13;;;;;;;;;;;24.00;79.30;;;;;;5089445;28;19983;-63
2022/08/09 03:44:38;;;;;;;;;;;24.10;79.30;;;;;;5083174;28;19959;-64
2022/08/09 03:47:04;;;;;;;;;;;23.80;79.20;;;;;;5077487;28;19921;-62
2022/08/09 03:49:30;;;;;;;;;;;23.80;79.10;;;;;;5059272;28;19925;-62
2022/08/09 03:51:56;;;;;;;;;;;24.00;79.20;;;;;;5076100;28;20297;-62
2022/08/09 03:54:23;;;;;;;;;;;24.00;79.50;;;;;;5098221;28;19920;-63
2022/08/09 03:56:49;;;;;;;;;;;23.80;79.30;;;;;;5067074;28;19925;-62
2022/08/09 03:59:14;;;;;;;;;;;23.80;79.00;;;;;;5051432;28;20397;-64
2022/08/09 04:01:40;;;;;;;;;;;24.10;79.30;;;;;;5074010;28;20036;-62
2022/08/09 04:04:06;;;;;;;;;;;23.80;79.10;;;;;;5095383;28;19928;-62
2022/08/09 04:06:31;;;;;;;;;;;23.80;79.30;;;;;;5053294;28;20305;-61
2022/08/09 04:08:57;;;;;;;;;;;24.10;79.40;;;;;;5070643;28;19933;-62
2022/08/09 04:11:22;;;;;;;;;;;23.90;79.30;;;;;;5074768;28;19930;-62
2022/08/09 04:13:48;;;;;;;;;;;23.80;79.20;;;;;;5043079;28;19925;-62
2022/08/09 04:16:14;;;;;;;;;;;24.10;79.40;;;;;;5070503;28;19933;-61
2022/08/09 04:18:40;;;;;;;;;;;24.30;79.40;;;;;;5078175;28;20297;-62
2022/08/09 04:21:08;;;;;;;;;;;23.90;79.40;;;;;;5071201;28;20884;-62
2022/08/09 04:23:33;;;;;;;;;;;24.00;79.40;;;;;;5070916;28;19924;-62
2022/08/09 04:25:59;;;;;;;;;;;24.00;79.40;;;;;;5094775;28;19970;-64
2022/08/09 04:28:25;;;;;;;;;;;24.10;79.60;;;;;;5096828;28;19928;-62
2022/08/09 04:30:51;;;;;;;;;;;24.00;79.00;;;;;;5068567;28;19924;-61
2022/08/09 04:33:16;;;;;;;;;;;23.70;79.20;;;;;;5088850;28;19931;-62
2022/08/09 04:35:42;;;;;;;;;;;24.10;79.20;;;;;;5072554;28;20306;-61
2022/08/09 04:38:08;;;;;;;;;;;24.00;79.50;;;;;;5092740;28;19924;-62
2022/08/09 04:40:55;;;;;;;;;;;23.70;79.10;;;;;;5058398;28;20379;-61
2022/08/09 04:43:19;;;;;;;;;;;23.90;79.40;;;;;;5055283;28;19968;-62
2022/08/09 04:45:45;;;;;;;;;;;24.10;79.30;;;;;;5077159;28;19967;-62
2022/08/09 04:48:12;;;;;;;;;;;23.90;79.10;;;;;;5079664;28;20305;-62
2022/08/09 04:50:37;;;;;;;;;;;23.90;79.20;;;;;;5094314;28;19924;-61
2022/08/09 04:53:06;;;;;;;;;;;24.00;79.20;;;;;;5067548;28;19928;-62
2022/08/09 04:55:32;;;;;;;;;;;23.90;79.00;;;;;;5066805;28;20381;-61
2022/08/09 04:57:57;;;;;;;;;;;23.90;79.30;;;;;;5056111;28;19925;-61
2022/08/09 05:00:23;;;;;;;;;;;23.90;79.00;;;;;;5067781;28;19928;-61
2022/08/09 05:02:49;;;;;;;;;;;24.00;79.00;;;;;;5084462;28;19924;-62
2022/08/09 05:05:14;;;;;;;;;;;24.10;79.00;;;;;;5042697;28;19929;-61
2022/08/09 05:07:40;;;;;;;;;;;24.10;78.90;;;;;;5079719;28;19924;-61
2022/08/09 05:10:06;;;;;;;;;;;24.20;79.40;;;;;;5034618;28;19929;-61
2022/08/09 05:12:31;;;;;;;;;;;24.40;78.60;;;;;;5079277;28;19944;-62
2022/08/09 05:14:57;;;;;;;;;;;24.60;78.60;;;;;;5085572;28;20293;-62
2022/08/09 05:17:23;;;;;;;;;;;24.60;78.40;;;;;;5044420;28;19971;-62
2022/08/09 05:19:48;;;;;;;;;;;24.80;78.10;;;;;;5055596;28;20331;-61
2022/08/09 05:22:14;;;;;;;;;;;24.90;77.90;;;;;;5055807;28;19947;-62
2022/08/09 05:24:39;;;;;;;;;;;25.10;77.70;;;;;;5074260;28;19920;-62
2022/08/09 05:27:05;;;;;;;;;;;25.00;77.30;;;;;;5083329;28;20278;-61
2022/08/09 05:29:31;;;;;;;;;;;25.30;77.00;;;;;;5090968;28;19973;-69
2022/08/09 05:31:58;;;;;;;;;;;25.50;77.10;;;;;;5085480;28;19924;-61
2022/08/09 05:34:28;;;;;;;;;;;25.60;76.90;;;;;;5081835;28;19925;-61
2022/08/09 05:36:55;;;;;;;;;;;25.50;75.40;;;;;;5077637;28;19920;-61
2022/08/09 05:39:21;;;;;;;;;;;26.00;76.70;;;;;;5094150;28;19924;-62
2022/08/09 05:41:47;;;;;;;;;;;26.00;76.90;;;;;;5093491;28;19924;-62
2022/08/09 05:44:12;;;;;;;;;;;26.00;76.40;;;;;;5058066;28;19924;-61
2022/08/09 05:46:39;;;;;;;;;;;26.00;76.50;;;;;;5076463;28;19928;-61
2022/08/09 05:49:05;;;;;;;;;;;26.10;75.10;;;;;;5068020;28;19929;-61
2022/08/09 05:51:31;;;;;;;;;;;26.30;76.30;;;;;;5074537;28;19924;-61
2022/08/09 05:53:56;;;;;;;;;;;26.20;75.90;;;;;;5082219;28;19931;-62
2022/08/09 05:56:22;;;;;;;;;;;28.50;77.70;;;;;;5079589;28;19924;-61
2022/08/09 05:58:47;;;;;;;;;;;26.30;75.90;;;;;;5089308;28;19924;-62
2022/08/09 06:01:13;;;;;;;;;;;26.40;75.90;;;;;;5094941;28;19924;-63
2022/08/09 06:03:39;;;;;;;;;;;26.70;75.80;;;;;;5086552;28;20370;-61
2022/08/09 06:06:05;;;;;;;;;;;26.60;75.90;;;;;;5036121;28;20216;-61
2022/08/09 06:08:31;;;;;;;;;;;26.50;75.70;;;;;;5058804;28;19955;-61
2022/08/09 06:10:57;;;;;;;;;;;26.70;75.60;;;;;;5087161;28;19924;-61
2022/08/09 06:13:22;;;;;;;;;;;26.90;75.70;;;;;;5074188;28;20023;-61
2022/08/09 06:15:48;;;;;;;;;;;26.80;75.00;;;;;;5078595;28;19925;-61
2022/08/09 06:18:14;;;;;;;;;;;26.90;75.50;;;;;;5058810;28;19925;-62
2022/08/09 06:20:40;;;;;;;;;;;26.80;75.20;;;;;;5087283;28;19925;-62
2022/08/09 06:23:06;;;;;;;;;;;27.10;75.60;;;;;;5085284;28;19975;-62
2022/08/09 06:25:31;;;;;;;;;;;27.20;75.30;;;;;;5092847;28;20463;-62
2022/08/09 06:27:57;;;;;;;;;;;27.30;75.60;;;;;;5084842;28;19947;-61
2022/08/09 06:30:23;;;;;;;;;;;27.10;75.30;;;;;;5089901;28;19924;-62
2022/08/09 06:32:51;;;;;;;;;;;27.20;75.20;;;;;;5079457;28;19931;-70
2022/08/09 06:35:17;;;;;;;;;;;27.40;75.30;;;;;;5073904;28;19951;-70
2022/08/09 06:37:43;;;;;;;;;;;27.30;74.90;;;;;;5058374;28;19925;-70
2022/08/09 06:40:09;;;;;;;;;;;27.60;75.10;;;;;;5055859;28;19993;-70
2022/08/09 06:42:35;;;;;;;;;;;27.50;74.40;;;;;;5071481;28;19955;-70
2022/08/09 06:45:00;;;;;;;;;;;27.20;74.60;;;;;;5048396;28;19967;-69
2022/08/09 06:47:26;;;;;;;;;;;27.60;75.00;;;;;;5059878;28;19924;-62
2022/08/09 06:49:58;;;;;;;;;;;27.70;74.80;;;;;;5054678;28;20020;-62
2022/08/09 06:52:23;;;;;;;;;;;27.50;73.80;;;;;;5068037;28;20349;-61
2022/08/09 06:54:49;;;;;;;;;;;27.90;74.80;;;;;;5059707;28;20041;-62
2022/08/09 06:57:15;;;;;;;;;;;27.70;74.60;;;;;;5057125;28;19924;-62
2022/08/09 06:59:40;;;;;;;;;;;27.80;74.50;;;;;;5054050;28;19997;-61
2022/08/09 07:02:06;;;;;;;;;;;27.60;74.40;;;;;;5054470;28;19921;-63
2022/08/09 07:04:33;;;;;;;;;;;27.70;73.80;;;;;;5060365;28;19924;-63
2022/08/09 07:06:58;;;;;;;;;;;27.70;74.40;;;;;;5053668;28;20389;-62
2022/08/09 07:09:24;;;;;;;;;;;27.70;74.10;;;;;;5053973;28;19928;-64
2022/08/09 07:11:49;;;;;;;;;;;27.80;74.10;;;;;;5068849;28;19924;-62
2022/08/09 07:14:16;;;;;;;;;;;28.10;74.20;;;;;;5053866;28;19932;-70
2022/08/09 07:16:43;;;;;;;;;;;28.00;74.30;;;;;;5054284;28;19925;-70
2022/08/09 07:19:11;;;;;;;;;;;27.90;74.10;;;;;;5053477;28;20382;-70
2022/08/09 07:21:38;;;;;;;;;;;27.70;73.90;;;;;;5054295;28;19925;-70
2022/08/09 07:24:04;;;;;;;;;;;27.90;73.50;;;;;;5053455;28;20398;-70
2022/08/09 07:26:29;;;;;;;;;;;27.90;73.60;;;;;;5048605;28;19925;-70
2022/08/09 07:28:55;;;;;;;;;;;28.10;73.80;;;;;;5063933;28;19929;-62
2022/08/09 07:31:21;;;;;;;;;;;28.10;73.80;;;;;;5051660;28;20363;-70
2022/08/09 07:33:46;;;;;;;;;;;28.20;73.80;;;;;;5053316;28;20294;-62
2022/08/09 07:36:13;;;;;;;;;;;28.40;73.90;;;;;;5054797;28;19925;-70
2022/08/09 07:38:39;;;;;;;;;;;28.30;73.60;;;;;;5049446;28;19925;-70
2022/08/09 07:41:04;;;;;;;;;;;28.20;73.60;;;;;;5066283;28;19931;-70
2022/08/09 07:43:30;;;;;;;;;;;27.90;73.00;;;;;;5071040;28;19924;-70
2022/08/09 07:45:56;;;;;;;;;;;28.30;73.60;;;;;;5056575;28;19920;-70
2022/08/09 07:48:22;;;;;;;;;;;28.50;73.70;;;;;;5053265;28;20271;-70
2022/08/09 07:50:48;;;;;;;;;;;28.40;73.50;;;;;;5063535;28;20008;-70
2022/08/09 07:53:13;;;;;;;;;;;28.20;73.30;;;;;;5073249;28;19924;-70
2022/08/09 07:55:39;;;;;;;;;;;28.20;73.30;;;;;;5072579;28;19925;-70
2022/08/09 07:58:05;;;;;;;;;;;28.40;73.50;;;;;;5057536;28;20389;-70
2022/08/09 08:00:30;;;;;;;;;;;28.40;73.30;;;;;;5055960;28;19943;-73
2022/08/09 08:02:56;;;;;;;;;;;28.40;73.10;;;;;;5068613;28;19924;-73
2022/08/09 08:05:22;;;;;;;;;;;28.40;73.30;;;;;;5052944;28;20290;-73
2022/08/09 08:07:48;;;;;;;;;;;28.60;73.30;;;;;;5053995;28;19931;-67
2022/08/09 08:10:13;;;;;;;;;;;28.40;73.20;;;;;;5054258;28;20011;-61
2022/08/09 08:12:40;;;;;;;;;;;28.20;73.20;;;;;;5062003;28;19924;-61
2022/08/09 08:15:06;;;;;;;;;;;28.40;73.60;;;;;;5052993;28;20481;-62
2022/08/09 08:17:31;;;;;;;;;;;28.30;72.90;;;;;;5053450;28;20019;-62
2022/08/09 08:19:57;;;;;;;;;;;28.30;72.80;;;;;;5060763;28;19971;-61
2022/08/09 08:22:23;;;;;;;;;;;28.10;73.10;;;;;;5056181;28;20397;-62
2022/08/09 08:24:54;;;;;;;;;;;28.30;73.00;;;;;;5056815;28;19925;-62
2022/08/09 08:27:20;;;;;;;;;;;28.10;73.40;;;;;;5056779;28;20015;-63
2022/08/09 08:29:46;;;;;;;;;;;28.30;73.60;;;;;;5067714;28;19928;-66
2022/08/09 08:32:11;;;;;;;;;;;28.00;73.40;;;;;;5053251;28;19977;-61
2022/08/09 08:34:37;;;;;;;;;;;28.30;73.20;;;;;;5060136;28;19921;-63
2022/08/09 08:37:03;;;;;;;;;;;28.10;73.50;;;;;;5057307;28;20388;-63
2022/08/09 08:39:29;;;;;;;;;;;28.20;73.20;;;;;;5062607;28;19931;-62
2022/08/09 08:41:55;;;;;;;;;;;27.70;73.00;;;;;;5076527;28;19995;-63
2022/08/09 08:44:21;;;;;;;;;;;28.20;73.30;;;;;;5058338;28;19925;-62
2022/08/09 08:46:47;;;;;;;;;;;27.90;73.40;;;;;;5056442;28;19931;-62
2022/08/09 08:49:12;;;;;;;;;;;28.30;73.60;;;;;;5039852;28;19924;-62
2022/08/09 08:51:38;;;;;;;;;;;28.20;73.40;;;;;;5035798;28;19925;-62
2022/08/09 08:54:06;;;;;;;;;;;28.20;73.00;;;;;;5054142;28;19940;-67
2022/08/09 08:56:35;;;;;;;;;;;28.00;72.30;;;;;;5055976;28;20405;-66
2022/08/09 08:59:02;;;;;;;;;;;28.10;72.00;;;;;;5056142;28;19925;-62
2022/08/09 09:01:28;;;;;;;;;;;28.00;73.50;;;;;;5037068;28;19979;-62
2022/08/09 09:03:54;;;;;;;;;;;28.30;73.30;;;;;;5040372;28;19925;-63
2022/08/09 09:06:20;;;;;;;;;;;28.00;72.90;;;;;;5037740;28;20398;-62
2022/08/09 09:08:46;;;;;;;;;;;28.10;73.20;;;;;;5051224;28;19925;-62
2022/08/09 09:11:12;;;;;;;;;;;28.10;73.70;;;;;;5053369;28;19925;-63
2022/08/09 09:13:38;;;;;;;;;;;28.20;73.40;;;;;;5050878;28;19932;-62
2022/08/09 09:16:04;;;;;;;;;;;27.80;73.50;;;;;;5044643;28;19925;-61
2022/08/09 09:18:29;;;;;;;;;;;27.90;73.30;;;;;;5054592;28;19924;-62
2022/08/09 09:20:55;;;;;;;;;;;28.30;73.30;;;;;;5034338;28;19966;-62
2022/08/09 09:23:41;;;;;;;;;;;28.20;73.40;;;;;;5053676;28;19925;-62
2022/08/09 09:26:06;;;;;;;;;;;28.40;72.30;;;;;;5060861;28;19966;-62
2022/08/09 09:28:32;;;;;;;;;;;28.30;73.20;;;;;;5046321;28;19974;-62
2022/08/09 09:31:00;;;;;;;;;;;28.00;73.40;;;;;;5055442;28;19987;-62
2022/08/09 09:33:35;;;;;;;;;;;28.00;73.50;;;;;;5064127;28;20019;-62
2022/08/09 09:36:01;;;;;;;;;;;27.90;72.00;;;;;;5072349;28;20070;-62
2022/08/09 09:38:45;;;;;;;;;;;28.10;73.70;;;;;;5074869;28;19924;-63
2022/08/09 09:41:27;;;;;;;;;;;27.90;72.00;;;;;;5074634;28;20378;-62
2022/08/09 09:44:05;;;;;;;;;;;28.10;73.60;;;;;;5065332;28;19925;-62
2022/08/09 09:46:34;;;;;;;;;;;27.90;73.60;;;;;;5056830;28;19990;-67
2022/08/09 09:49:03;;;;;;;;;;;27.90;73.60;;;;;;5059829;28;19928;-67
2022/08/09 09:51:29;;;;;;;;;;;27.80;72.20;;;;;;5054835;28;20003;-67
2022/08/09 09:54:22;;;;;;;;;;;28.20;73.60;;;;;;5055419;28;20402;-63
2022/08/09 09:56:51;;;;;;;;;;;27.80;72.20;;;;;;5031772;28;19925;-63
2022/08/09 09:59:21;;;;;;;;;;;27.80;73.50;;;;;;5052953;28;19925;-62
2022/08/09 10:01:49;;;;;;;;;;;27.70;72.40;;;;;;5059942;28;19982;-62
2022/08/09 10:04:15;;;;;;;;;;;27.70;73.80;;;;;;5051308;28;19936;-63
2022/08/09 10:06:42;;;;;;;;;;;27.60;73.60;;;;;;5054627;28;19932;-62
2022/08/09 10:09:07;;;;;;;;;;;27.80;73.50;;;;;;5063656;28;19921;-68
2022/08/09 10:11:33;;;;;;;;;;;27.60;73.10;;;;;;5058357;28;19932;-62
2022/08/09 10:13:59;;;;;;;;;;;27.80;73.20;;;;;;5054306;28;19925;-62
2022/08/09 10:16:28;;;;;;;;;;;27.60;73.10;;;;;;5054761;28;19928;-62
2022/08/09 10:18:54;;;;;;;;;;;27.80;72.30;;;;;;5054488;28;19971;-62
2022/08/09 10:21:20;;;;;;;;;;;27.70;73.40;;;;;;5058027;28;19925;-62
2022/08/09 10:23:45;;;;;;;;;;;27.80;73.60;;;;;;5033210;28;20442;-61
2022/08/09 10:26:11;;;;;;;;;;;27.60;73.90;;;;;;5051208;28;19936;-63
2022/08/09 10:28:38;;;;;;;;;;;27.50;73.90;;;;;;5054212;28;19931;-61
2022/08/09 10:31:03;;;;;;;;;;;27.40;73.50;;;;;;5034235;28;19952;-62
2022/08/09 10:33:29;;;;;;;;;;;27.50;73.80;;;;;;5054751;28;19929;-62
2022/08/09 10:35:55;;;;;;;;;;;27.60;73.90;;;;;;5038016;28;19929;-63
2022/08/09 10:38:20;;;;;;;;;;;27.80;74.30;;;;;;5070868;28;19932;-63
2022/08/09 10:40:46;;;;;;;;;;;27.70;74.10;;;;;;5065824;28;19924;-66
2022/08/09 10:43:12;;;;;;;;;;;27.40;74.00;;;;;;5062945;28;19933;-71
2022/08/09 10:45:41;;;;;;;;;;;27.50;73.90;;;;;;5055933;28;19989;-70
2022/08/09 10:48:10;;;;;;;;;;;27.50;73.90;;;;;;5056024;28;19932;-70
2022/08/09 10:53:50;;;;;;;;;;;27.80;73.10;;;;;;5038712;28;19935;-62
2022/08/09 10:56:18;;;;;;;;;;;27.50;72.80;;;;;;5032789;28;19925;-61
2022/08/09 10:58:43;;;;;;;;;;;27.50;74.20;;;;;;5053659;28;19979;-62
2022/08/09 11:01:28;;;;;;;;;;;27.70;75.10;;;;;;5053752;28;19925;-63
2022/08/09 11:04:09;;;;;;;;;;;27.40;73.30;;;;;;5068664;28;19932;-62
2022/08/09 11:06:36;;;;;;;;;;;27.60;73.30;;;;;;5053719;28;19925;-63
2022/08/09 11:09:02;;;;;;;;;;;27.50;74.80;;;;;;5063518;28;19966;-63
2022/08/09 11:11:46;;;;;;;;;;;27.60;74.80;;;;;;5054422;28;20007;-66
2022/08/09 11:14:31;;;;;;;;;;;27.60;73.50;;;;;;5068365;28;19942;-64
2022/08/09 11:16:57;;;;;;;;;;;27.60;73.60;;;;;;5053844;28;19932;-62
2022/08/09 11:19:41;;;;;;;;;;;27.40;74.10;;;;;;5053723;28;19924;-63
2022/08/09 11:22:07;;;;;;;;;;;27.80;73.60;;;;;;5053451;28;19925;-62
2022/08/09 11:24:53;;;;;;;;;;;27.50;74.50;;;;;;5066836;28;19925;-65
2022/08/09 11:27:39;;;;;;;;;;;27.30;75.00;;;;;;5036290;28;20325;-61
2022/08/09 11:30:05;;;;;;;;;;;27.40;75.20;;;;;;5067292;28;19935;-62
2022/08/09 11:32:49;;;;;;;;;;;27.60;74.50;;;;;;5022968;28;20390;-61
2022/08/09 11:35:35;;;;;;;;;;;27.70;73.60;;;;;;5063430;28;19928;-61
2022/08/09 11:38:13;;;;;;;;;;;27.90;75.30;;;;;;5072855;28;20316;-61
2022/08/09 11:40:39;;;;;;;;;;;27.40;73.30;;;;;;5073655;28;19931;-61
2022/08/09 11:43:04;;;;;;;;;;;27.60;74.70;;;;;;5067633;28;20011;-61
2022/08/09 11:45:33;;;;;;;;;;;27.60;74.70;;;;;;5058032;28;19964;-66
2022/08/09 11:47:59;;;;;;;;;;;27.50;74.90;;;;;;5053575;28;19925;-61
2022/08/09 11:50:25;;;;;;;;;;;27.80;74.90;;;;;;5053348;28;19932;-61
2022/08/09 11:53:14;;;;;;;;;;;27.80;75.00;;;;;;5053185;28;19932;-62
2022/08/09 11:55:41;;;;;;;;;;;27.70;73.60;;;;;;5000730;28;19925;-65
2022/08/09 11:58:12;;;;;;;;;;;27.50;74.70;;;;;;5035240;28;20361;-62
2022/08/09 12:00:46;;;;;;;;;;;27.70;73.60;;;;;;5033591;28;20020;-62
2022/08/09 12:03:14;;;;;;;;;;;27.60;75.10;;;;;;5035032;28;19975;-62
2022/08/09 12:05:39;;;;;;;;;;;27.70;75.10;;;;;;5034212;28;19925;-70
2022/08/09 12:08:06;;;;;;;;;;;27.50;74.60;;;;;;5029298;28;19931;-62
2022/08/09 12:10:32;;;;;;;;;;;27.90;75.30;;;;;;5021132;28;20064;-61
2022/08/09 12:12:59;;;;;;;;;;;27.70;74.90;;;;;;5051292;28;19921;-62
2022/08/09 12:15:25;;;;;;;;;;;27.80;74.90;;;;;;5033468;28;20338;-62
2022/08/09 12:17:51;;;;;;;;;;;27.50;74.70;;;;;;5034394;28;19925;-62
2022/08/09 12:20:17;;;;;;;;;;;27.70;74.80;;;;;;5034590;28;19979;-62
2022/08/09 12:22:44;;;;;;;;;;;27.90;74.90;;;;;;5018404;28;19976;-63
2022/08/09 12:25:13;;;;;;;;;;;27.60;75.10;;;;;;5034288;28;20330;-65
2022/08/09 12:27:39;;;;;;;;;;;27.90;75.30;;;;;;5032699;28;19971;-65
2022/08/09 12:30:06;;;;;;;;;;;27.80;75.10;;;;;;5034586;28;19929;-65
2022/08/09 12:32:31;;;;;;;;;;;27.70;74.40;;;;;;5036076;28;20359;-65
2022/08/09 12:34:58;;;;;;;;;;;27.50;74.60;;;;;;5037198;28;19925;-66
2022/08/09 12:37:33;;;;;;;;;;;27.40;74.80;;;;;;5049939;28;20390;-65
2022/08/09 12:40:09;;;;;;;;;;;27.70;73.50;;;;;;5036377;28;19925;-67
2022/08/09 12:42:34;;;;;;;;;;;27.90;73.60;;;;;;5036249;28;19929;-64
2022/08/09 12:45:00;;;;;;;;;;;27.80;74.60;;;;;;5015271;28;19932;-66
2022/08/09 12:47:26;;;;;;;;;;;27.70;74.80;;;;;;5034927;28;19948;-65
2022/08/09 12:52:39;;;;;;;;;;;27.70;73.60;;;;;;5045184;28;19925;-67
2022/08/09 12:55:06;;;;;;;;;;;27.70;74.80;;;;;;5036086;28;19935;-66
2022/08/09 12:57:39;;;;;;;;;;;27.70;74.10;;;;;;5047768;28;20318;-65
2022/08/09 13:00:24;;;;;;;;;;;27.80;73.40;;;;;;5032359;28;19929;-66
2022/08/09 13:02:51;;;;;;;;;;;27.70;73.50;;;;;;5029751;28;19925;-67
2022/08/09 13:05:17;;;;;;;;;;;27.80;75.00;;;;;;5035480;28;19925;-65
2022/08/09 13:08:03;;;;;;;;;;;27.70;74.80;;;;;;5047735;28;19924;-67
2022/08/09 13:10:28;;;;;;;;;;;27.60;74.80;;;;;;5041470;28;19940;-67
2022/08/09 13:12:54;;;;;;;;;;;28.10;74.80;;;;;;5037024;28;20099;-65
2022/08/09 13:15:19;;;;;;;;;;;27.90;74.40;;;;;;5036100;28;20382;-65
2022/08/09 13:17:45;;;;;;;;;;;27.70;75.30;;;;;;5017817;28;20294;-66
2022/08/09 13:20:11;;;;;;;;;;;27.60;74.90;;;;;;5041931;28;19931;-61
2022/08/09 13:22:46;;;;;;;;;;;27.60;74.60;;;;;;5067959;28;19968;-62
2022/08/09 13:25:11;;;;;;;;;;;27.50;74.90;;;;;;5055493;28;20444;-61
2022/08/09 13:27:37;;;;;;;;;;;27.30;74.60;;;;;;5055586;28;19924;-62
2022/08/09 13:30:07;;;;;;;;;;;27.40;74.80;;;;;;5040384;28;19971;-63
2022/08/09 13:32:46;;;;;;;;;;;27.50;73.60;;;;;;5038903;28;19928;-62
2022/08/09 13:35:12;;;;;;;;;;;27.50;73.50;;;;;;5055444;28;20024;-62
2022/08/09 13:37:37;;;;;;;;;;;27.60;75.10;;;;;;5055137;28;20364;-62
2022/08/09 13:40:03;;;;;;;;;;;27.60;74.70;;;;;;5033766;28;19932;-63
2022/08/09 13:42:29;;;;;;;;;;;27.60;74.70;;;;;;5055744;28;20012;-69
2022/08/09 13:44:55;;;;;;;;;;;27.70;75.20;;;;;;5075360;28;19979;-66
2022/08/09 13:47:20;;;;;;;;;;;27.60;75.20;;;;;;5055205;28;20011;-67
2022/08/09 13:49:46;;;;;;;;;;;27.60;75.10;;;;;;5059115;28;20019;-66
2022/08/09 13:52:12;;;;;;;;;;;27.60;75.10;;;;;;5040640;28;19970;-67
2022/08/09 13:54:38;;;;;;;;;;;27.60;75.10;;;;;;5017274;28;20392;-66
2022/08/09 13:57:04;;;;;;;;;;;27.30;75.20;;;;;;5034078;28;19932;-65
2022/08/09 13:59:30;;;;;;;;;;;27.40;74.80;;;;;;5036600;28;20311;-66
2022/08/09 14:01:56;;;;;;;;;;;27.30;75.10;;;;;;5057664;28;19925;-68
2022/08/09 14:04:21;;;;;;;;;;;27.60;74.70;;;;;;5057447;28;19933;-67
2022/08/09 14:06:57;;;;;;;;;;;27.80;75.40;;;;;;5033724;28;20015;-68
2022/08/09 14:09:23;;;;;;;;;;;27.40;73.90;;;;;;5053548;28;20283;-68
2022/08/09 14:11:49;;;;;;;;;;;27.10;74.40;;;;;;5050352;28;20016;-65
2022/08/09 14:14:15;;;;;;;;;;;27.50;75.40;;;;;;5059619;28;19935;-62
2022/08/09 14:16:41;;;;;;;;;;;27.40;75.40;;;;;;5049571;28;20365;-62
2022/08/09 14:19:06;;;;;;;;;;;27.50;75.10;;;;;;5049971;28;20011;-61
2022/08/09 14:21:32;;;;;;;;;;;27.70;75.50;;;;;;5054520;28;19987;-62
2022/08/09 14:23:58;;;;;;;;;;;27.60;75.50;;;;;;5055568;28;19971;-62